sensor_id;sensor_type;location;lat;lon;timestamp;P1;durP1;ratioP1;P2;durP2;ratioP2
64678;SDS011;51094;53.864;27.676;2023-07-28T00:01:40;0.80;;;0.80;;
64678;SDS011;51094;53.864;27.676;2023-07-28T00:04:09;0.90;;;0.90;;
64678;SDS011;51094;53.864;27.676;2023-07-28T00:06:39;0.70;;;0.70;;
64678;SDS011;51094;53.864;27.676;2023-07-28T00:09:08;0.70;;;0.70;;
64678;SDS011;51094;53.864;27.676;2023-07-28T00:11:42;1.00;;;1.00;;
64678;SDS011;51094;53.864;27.676;2023-07-28T00:14:13;0.70;;;0.70;;
64678;SDS011;51094;53.864;27.676;2023-07-28T00:16:44;0.65;;;0.65;;
64678;SDS011;51094;53.864;27.676;2023-07-28T00:19:15;0.68;;;0.68;;
64678;SDS011;51094;53.864;27.676;2023-07-28T00:21:44;0.60;;;0.60;;
64678;SDS011;51094;53.864;27.676;2023-07-28T00:24:12;0.50;;;0.50;;
64678;SDS011;51094;53.864;27.676;2023-07-28T00:26:44;0.70;;;0.70;;
64678;SDS011;51094;53.864;27.676;2023-07-28T00:29:20;0.60;;;0.60;;
64678;SDS011;51094;53.864;27.676;2023-07-28T00:34:17;0.50;;;0.50;;
64678;SDS011;51094;53.864;27.676;2023-07-28T00:36:45;0.68;;;0.68;;
64678;SDS011;51094;53.864;27.676;2023-07-28T00:39:13;0.60;;;0.60;;
64678;SDS011;51094;53.864;27.676;2023-07-28T00:41:42;0.60;;;0.60;;
64678;SDS011;51094;53.864;27.676;2023-07-28T00:44:12;0.70;;;0.70;;
64678;SDS011;51094;53.864;27.676;2023-07-28T00:46:45;0.60;;;0.60;;
64678;SDS011;51094;53.864;27.676;2023-07-28T00:49:12;0.70;;;0.70;;
64678;SDS011;51094;53.864;27.676;2023-07-28T00:51:43;0.60;;;0.60;;
64678;SDS011;51094;53.864;27.676;2023-07-28T00:54:14;0.70;;;0.70;;
64678;SDS011;51094;53.864;27.676;2023-07-28T00:56:43;0.70;;;0.70;;
64678;SDS011;51094;53.864;27.676;2023-07-28T00:59:12;0.85;;;0.85;;
64678;SDS011;51094;53.864;27.676;2023-07-28T01:01:42;0.60;;;0.60;;
64678;SDS011;51094;53.864;27.676;2023-07-28T01:04:11;0.70;;;0.70;;
64678;SDS011;51094;53.864;27.676;2023-07-28T01:06:47;0.70;;;0.70;;
64678;SDS011;51094;53.864;27.676;2023-07-28T01:09:29;0.70;;;0.70;;
64678;SDS011;51094;53.864;27.676;2023-07-28T01:12:13;0.60;;;0.60;;
64678;SDS011;51094;53.864;27.676;2023-07-28T01:14:40;0.70;;;0.70;;
64678;SDS011;51094;53.864;27.676;2023-07-28T01:17:07;0.50;;;0.50;;
64678;SDS011;51094;53.864;27.676;2023-07-28T01:19:34;0.68;;;0.68;;
64678;SDS011;51094;53.864;27.676;2023-07-28T01:22:16;0.50;;;0.50;;
64678;SDS011;51094;53.864;27.676;2023-07-28T01:25:02;0.70;;;0.70;;
64678;SDS011;51094;53.864;27.676;2023-07-28T01:27:32;0.70;;;0.70;;
64678;SDS011;51094;53.864;27.676;2023-07-28T01:29:59;0.60;;;0.60;;
64678;SDS011;51094;53.864;27.676;2023-07-28T01:32:26;0.52;;;0.52;;
64678;SDS011;51094;53.864;27.676;2023-07-28T01:34:54;0.75;;;0.75;;
64678;SDS011;51094;53.864;27.676;2023-07-28T01:37:20;0.70;;;0.70;;
64678;SDS011;51094;53.864;27.676;2023-07-28T01:39:47;0.50;;;0.50;;
64678;SDS011;51094;53.864;27.676;2023-07-28T01:42:14;0.80;;;0.80;;
64678;SDS011;51094;53.864;27.676;2023-07-28T01:44:41;0.70;;;0.70;;
64678;SDS011;51094;53.864;27.676;2023-07-28T01:47:08;0.70;;;0.70;;
64678;SDS011;51094;53.864;27.676;2023-07-28T01:49:35;0.68;;;0.68;;
64678;SDS011;51094;53.864;27.676;2023-07-28T01:52:02;0.63;;;0.63;;
64678;SDS011;51094;53.864;27.676;2023-07-28T01:54:29;0.70;;;0.70;;
64678;SDS011;51094;53.864;27.676;2023-07-28T01:56:57;0.70;;;0.70;;
64678;SDS011;51094;53.864;27.676;2023-07-28T01:59:23;0.70;;;0.70;;
64678;SDS011;51094;53.864;27.676;2023-07-28T02:01:50;0.57;;;0.57;;
64678;SDS011;51094;53.864;27.676;2023-07-28T02:04:17;0.70;;;0.70;;
64678;SDS011;51094;53.864;27.676;2023-07-28T02:06:44;0.75;;;0.75;;
64678;SDS011;51094;53.864;27.676;2023-07-28T02:09:11;0.65;;;0.65;;
64678;SDS011;51094;53.864;27.676;2023-07-28T02:11:38;0.70;;;0.70;;
64678;SDS011;51094;53.864;27.676;2023-07-28T02:14:05;0.65;;;0.65;;
64678;SDS011;51094;53.864;27.676;2023-07-28T02:16:31;0.75;;;0.75;;
64678;SDS011;51094;53.864;27.676;2023-07-28T02:18:59;0.50;;;0.50;;
64678;SDS011;51094;53.864;27.676;2023-07-28T02:21:26;0.60;;;0.60;;
64678;SDS011;51094;53.864;27.676;2023-07-28T02:23:56;0.60;;;0.60;;
64678;SDS011;51094;53.864;27.676;2023-07-28T02:26:23;0.60;;;0.60;;
64678;SDS011;51094;53.864;27.676;2023-07-28T02:28:49;0.80;;;0.80;;
64678;SDS011;51094;53.864;27.676;2023-07-28T02:31:16;0.80;;;0.80;;
64678;SDS011;51094;53.864;27.676;2023-07-28T02:33:43;0.57;;;0.57;;
64678;SDS011;51094;53.864;27.676;2023-07-28T02:36:10;0.70;;;0.70;;
64678;SDS011;51094;53.864;27.676;2023-07-28T02:38:36;0.60;;;0.60;;
64678;SDS011;51094;53.864;27.676;2023-07-28T02:41:03;0.60;;;0.60;;
64678;SDS011;51094;53.864;27.676;2023-07-28T02:43:30;0.55;;;0.55;;
64678;SDS011;51094;53.864;27.676;2023-07-28T02:45:57;0.70;;;0.70;;
64678;SDS011;51094;53.864;27.676;2023-07-28T02:48:24;0.70;;;0.70;;
64678;SDS011;51094;53.864;27.676;2023-07-28T02:50:51;0.50;;;0.50;;
64678;SDS011;51094;53.864;27.676;2023-07-28T02:53:19;0.60;;;0.60;;
64678;SDS011;51094;53.864;27.676;2023-07-28T02:55:46;0.60;;;0.60;;
64678;SDS011;51094;53.864;27.676;2023-07-28T02:58:14;0.60;;;0.60;;
64678;SDS011;51094;53.864;27.676;2023-07-28T03:00:41;0.70;;;0.70;;
64678;SDS011;51094;53.864;27.676;2023-07-28T03:03:11;0.70;;;0.70;;
64678;SDS011;51094;53.864;27.676;2023-07-28T03:05:39;0.77;;;0.77;;
64678;SDS011;51094;53.864;27.676;2023-07-28T03:08:15;0.70;;;0.70;;
64678;SDS011;51094;53.864;27.676;2023-07-28T03:10:43;0.60;;;0.60;;
64678;SDS011;51094;53.864;27.676;2023-07-28T03:13:09;0.70;;;0.70;;
64678;SDS011;51094;53.864;27.676;2023-07-28T03:15:36;0.73;;;0.73;;
64678;SDS011;51094;53.864;27.676;2023-07-28T03:18:04;0.60;;;0.60;;
64678;SDS011;51094;53.864;27.676;2023-07-28T03:20:32;0.60;;;0.60;;
64678;SDS011;51094;53.864;27.676;2023-07-28T03:22:58;0.70;;;0.70;;
64678;SDS011;51094;53.864;27.676;2023-07-28T03:25:26;0.60;;;0.60;;
64678;SDS011;51094;53.864;27.676;2023-07-28T03:27:53;0.65;;;0.65;;
64678;SDS011;51094;53.864;27.676;2023-07-28T03:30:20;0.60;;;0.60;;
64678;SDS011;51094;53.864;27.676;2023-07-28T03:32:47;0.50;;;0.50;;
64678;SDS011;51094;53.864;27.676;2023-07-28T03:35:14;0.65;;;0.65;;
64678;SDS011;51094;53.864;27.676;2023-07-28T03:37:47;0.68;;;0.68;;
64678;SDS011;51094;53.864;27.676;2023-07-28T03:40:14;1.00;;;1.00;;
64678;SDS011;51094;53.864;27.676;2023-07-28T03:42:50;0.80;;;0.80;;
64678;SDS011;51094;53.864;27.676;2023-07-28T03:45:18;0.70;;;0.70;;
64678;SDS011;51094;53.864;27.676;2023-07-28T03:47:45;1.10;;;1.10;;
64678;SDS011;51094;53.864;27.676;2023-07-28T03:50:12;1.10;;;1.10;;
64678;SDS011;51094;53.864;27.676;2023-07-28T03:52:39;1.20;;;1.20;;
64678;SDS011;51094;53.864;27.676;2023-07-28T03:55:06;1.20;;;1.20;;
64678;SDS011;51094;53.864;27.676;2023-07-28T03:57:33;1.20;;;1.20;;
64678;SDS011;51094;53.864;27.676;2023-07-28T04:00:00;1.00;;;1.00;;
64678;SDS011;51094;53.864;27.676;2023-07-28T04:02:27;1.08;;;1.08;;
64678;SDS011;51094;53.864;27.676;2023-07-28T04:04:54;1.25;;;1.25;;
64678;SDS011;51094;53.864;27.676;2023-07-28T04:07:21;1.23;;;1.23;;
64678;SDS011;51094;53.864;27.676;2023-07-28T04:09:48;2.30;;;2.30;;
64678;SDS011;51094;53.864;27.676;2023-07-28T04:12:15;1.70;;;1.70;;
64678;SDS011;51094;53.864;27.676;2023-07-28T04:14:42;0.93;;;0.93;;
64678;SDS011;51094;53.864;27.676;2023-07-28T04:17:09;0.68;;;0.68;;
64678;SDS011;51094;53.864;27.676;2023-07-28T04:19:36;0.80;;;0.80;;
64678;SDS011;51094;53.864;27.676;2023-07-28T04:22:03;0.70;;;0.70;;
64678;SDS011;51094;53.864;27.676;2023-07-28T04:24:31;0.60;;;0.60;;
64678;SDS011;51094;53.864;27.676;2023-07-28T04:26:58;0.50;;;0.50;;
64678;SDS011;51094;53.864;27.676;2023-07-28T04:29:25;0.65;;;0.65;;
64678;SDS011;51094;53.864;27.676;2023-07-28T04:31:53;0.60;;;0.60;;
64678;SDS011;51094;53.864;27.676;2023-07-28T04:34:28;0.60;;;0.60;;
64678;SDS011;51094;53.864;27.676;2023-07-28T04:37:21;0.80;;;0.80;;
64678;SDS011;51094;53.864;27.676;2023-07-28T04:39:57;0.82;;;0.82;;
64678;SDS011;51094;53.864;27.676;2023-07-28T04:42:29;0.80;;;0.80;;
64678;SDS011;51094;53.864;27.676;2023-07-28T04:44:56;0.80;;;0.80;;
64678;SDS011;51094;53.864;27.676;2023-07-28T04:47:22;0.80;;;0.80;;
64678;SDS011;51094;53.864;27.676;2023-07-28T04:49:50;0.80;;;0.80;;
64678;SDS011;51094;53.864;27.676;2023-07-28T04:52:36;1.08;;;1.08;;
64678;SDS011;51094;53.864;27.676;2023-07-28T04:55:22;1.27;;;1.27;;
64678;SDS011;51094;53.864;27.676;2023-07-28T04:57:49;1.95;;;1.95;;
64678;SDS011;51094;53.864;27.676;2023-07-28T05:00:17;1.90;;;1.90;;
64678;SDS011;51094;53.864;27.676;2023-07-28T05:02:44;2.13;;;2.13;;
64678;SDS011;51094;53.864;27.676;2023-07-28T05:05:12;3.40;;;3.33;;
64678;SDS011;51094;53.864;27.676;2023-07-28T05:07:39;1.92;;;1.92;;
64678;SDS011;51094;53.864;27.676;2023-07-28T05:10:05;1.65;;;1.65;;
64678;SDS011;51094;53.864;27.676;2023-07-28T05:12:33;1.80;;;1.80;;
64678;SDS011;51094;53.864;27.676;2023-07-28T05:15:00;2.03;;;2.03;;
64678;SDS011;51094;53.864;27.676;2023-07-28T05:17:26;2.22;;;2.22;;
64678;SDS011;51094;53.864;27.676;2023-07-28T05:20:19;2.15;;;2.13;;
64678;SDS011;51094;53.864;27.676;2023-07-28T05:23:05;1.77;;;1.70;;
64678;SDS011;51094;53.864;27.676;2023-07-28T05:25:32;1.70;;;1.70;;
64678;SDS011;51094;53.864;27.676;2023-07-28T05:27:59;1.70;;;1.70;;
64678;SDS011;51094;53.864;27.676;2023-07-28T05:30:27;1.70;;;1.70;;
64678;SDS011;51094;53.864;27.676;2023-07-28T05:32:57;1.70;;;1.70;;
64678;SDS011;51094;53.864;27.676;2023-07-28T05:35:34;1.60;;;1.60;;
64678;SDS011;51094;53.864;27.676;2023-07-28T05:38:01;1.60;;;1.60;;
64678;SDS011;51094;53.864;27.676;2023-07-28T05:40:28;1.20;;;1.20;;
64678;SDS011;51094;53.864;27.676;2023-07-28T05:42:55;1.02;;;1.02;;
64678;SDS011;51094;53.864;27.676;2023-07-28T05:45:22;1.05;;;1.05;;
64678;SDS011;51094;53.864;27.676;2023-07-28T05:47:49;1.20;;;1.20;;
64678;SDS011;51094;53.864;27.676;2023-07-28T05:50:16;1.30;;;1.30;;
64678;SDS011;51094;53.864;27.676;2023-07-28T05:52:43;1.25;;;1.25;;
64678;SDS011;51094;53.864;27.676;2023-07-28T05:55:10;1.40;;;1.40;;
64678;SDS011;51094;53.864;27.676;2023-07-28T05:57:37;1.20;;;1.20;;
64678;SDS011;51094;53.864;27.676;2023-07-28T06:00:07;1.50;;;1.50;;
64678;SDS011;51094;53.864;27.676;2023-07-28T06:02:39;1.80;;;1.80;;
64678;SDS011;51094;53.864;27.676;2023-07-28T06:07:35;1.60;;;1.60;;
64678;SDS011;51094;53.864;27.676;2023-07-28T06:10:02;1.60;;;1.60;;
64678;SDS011;51094;53.864;27.676;2023-07-28T06:12:29;1.10;;;1.10;;
64678;SDS011;51094;53.864;27.676;2023-07-28T06:14:56;0.73;;;0.73;;
64678;SDS011;51094;53.864;27.676;2023-07-28T06:17:23;1.10;;;1.10;;
64678;SDS011;51094;53.864;27.676;2023-07-28T06:19:50;0.80;;;0.80;;
64678;SDS011;51094;53.864;27.676;2023-07-28T06:22:17;0.80;;;0.80;;
64678;SDS011;51094;53.864;27.676;2023-07-28T06:24:45;1.45;;;1.45;;
64678;SDS011;51094;53.864;27.676;2023-07-28T06:27:12;0.90;;;0.90;;
64678;SDS011;51094;53.864;27.676;2023-07-28T06:29:39;0.77;;;0.77;;
64678;SDS011;51094;53.864;27.676;2023-07-28T06:32:06;0.80;;;0.80;;
64678;SDS011;51094;53.864;27.676;2023-07-28T06:34:34;1.10;;;1.10;;
64678;SDS011;51094;53.864;27.676;2023-07-28T06:37:01;0.80;;;0.80;;
64678;SDS011;51094;53.864;27.676;2023-07-28T06:39:28;0.50;;;0.50;;
64678;SDS011;51094;53.864;27.676;2023-07-28T06:41:56;0.52;;;0.50;;
64678;SDS011;51094;53.864;27.676;2023-07-28T06:44:25;0.40;;;0.40;;
64678;SDS011;51094;53.864;27.676;2023-07-28T06:46:52;0.40;;;0.40;;
64678;SDS011;51094;53.864;27.676;2023-07-28T06:49:19;0.50;;;0.50;;
64678;SDS011;51094;53.864;27.676;2023-07-28T06:51:46;0.30;;;0.30;;
64678;SDS011;51094;53.864;27.676;2023-07-28T06:54:13;0.40;;;0.40;;
64678;SDS011;51094;53.864;27.676;2023-07-28T06:56:40;0.35;;;0.35;;
64678;SDS011;51094;53.864;27.676;2023-07-28T06:59:07;0.30;;;0.30;;
64678;SDS011;51094;53.864;27.676;2023-07-28T07:01:43;0.40;;;0.40;;
64678;SDS011;51094;53.864;27.676;2023-07-28T07:04:10;0.35;;;0.35;;
64678;SDS011;51094;53.864;27.676;2023-07-28T07:06:37;0.40;;;0.40;;
64678;SDS011;51094;53.864;27.676;2023-07-28T07:09:05;0.40;;;0.40;;
64678;SDS011;51094;53.864;27.676;2023-07-28T07:11:32;0.30;;;0.30;;
64678;SDS011;51094;53.864;27.676;2023-07-28T07:14:00;0.38;;;0.38;;
64678;SDS011;51094;53.864;27.676;2023-07-28T07:16:27;0.30;;;0.30;;
64678;SDS011;51094;53.864;27.676;2023-07-28T07:18:54;0.40;;;0.40;;
64678;SDS011;51094;53.864;27.676;2023-07-28T07:21:21;0.30;;;0.30;;
64678;SDS011;51094;53.864;27.676;2023-07-28T07:23:48;0.40;;;0.40;;
64678;SDS011;51094;53.864;27.676;2023-07-28T07:26:24;0.65;;;0.65;;
64678;SDS011;51094;53.864;27.676;2023-07-28T07:28:51;0.60;;;0.60;;
64678;SDS011;51094;53.864;27.676;2023-07-28T07:31:18;0.60;;;0.60;;
64678;SDS011;51094;53.864;27.676;2023-07-28T07:33:45;0.55;;;0.55;;
64678;SDS011;51094;53.864;27.676;2023-07-28T07:36:15;0.80;;;0.80;;
64678;SDS011;51094;53.864;27.676;2023-07-28T07:38:43;1.30;;;1.30;;
64678;SDS011;51094;53.864;27.676;2023-07-28T07:41:14;0.80;;;0.80;;
64678;SDS011;51094;53.864;27.676;2023-07-28T07:43:47;0.80;;;0.80;;
64678;SDS011;51094;53.864;27.676;2023-07-28T07:46:14;0.70;;;0.70;;
64678;SDS011;51094;53.864;27.676;2023-07-28T07:48:42;0.70;;;0.70;;
64678;SDS011;51094;53.864;27.676;2023-07-28T07:51:09;0.70;;;0.70;;
64678;SDS011;51094;53.864;27.676;2023-07-28T07:53:37;0.80;;;0.80;;
64678;SDS011;51094;53.864;27.676;2023-07-28T07:56:04;0.70;;;0.70;;
64678;SDS011;51094;53.864;27.676;2023-07-28T07:58:31;0.80;;;0.80;;
64678;SDS011;51094;53.864;27.676;2023-07-28T08:00:59;0.70;;;0.70;;
64678;SDS011;51094;53.864;27.676;2023-07-28T08:03:26;0.80;;;0.80;;
64678;SDS011;51094;53.864;27.676;2023-07-28T08:05:53;0.60;;;0.60;;
64678;SDS011;51094;53.864;27.676;2023-07-28T08:08:21;0.50;;;0.50;;
64678;SDS011;51094;53.864;27.676;2023-07-28T08:10:48;0.60;;;0.60;;
64678;SDS011;51094;53.864;27.676;2023-07-28T08:13:16;0.60;;;0.60;;
64678;SDS011;51094;53.864;27.676;2023-07-28T08:15:43;0.77;;;0.77;;
64678;SDS011;51094;53.864;27.676;2023-07-28T08:18:12;0.68;;;0.68;;
64678;SDS011;51094;53.864;27.676;2023-07-28T08:20:39;0.70;;;0.70;;
64678;SDS011;51094;53.864;27.676;2023-07-28T08:23:06;1.58;;;1.58;;
64678;SDS011;51094;53.864;27.676;2023-07-28T08:25:34;0.80;;;0.80;;
64678;SDS011;51094;53.864;27.676;2023-07-28T08:28:01;0.95;;;0.95;;
64678;SDS011;51094;53.864;27.676;2023-07-28T08:30:28;0.90;;;0.90;;
64678;SDS011;51094;53.864;27.676;2023-07-28T08:32:55;0.60;;;0.60;;
64678;SDS011;51094;53.864;27.676;2023-07-28T08:35:22;0.63;;;0.63;;
64678;SDS011;51094;53.864;27.676;2023-07-28T08:37:49;0.50;;;0.50;;
64678;SDS011;51094;53.864;27.676;2023-07-28T08:40:16;0.60;;;0.60;;
64678;SDS011;51094;53.864;27.676;2023-07-28T08:42:43;4.78;;;4.68;;
64678;SDS011;51094;53.864;27.676;2023-07-28T08:45:10;1.17;;;1.17;;
64678;SDS011;51094;53.864;27.676;2023-07-28T08:47:37;0.60;;;0.60;;
64678;SDS011;51094;53.864;27.676;2023-07-28T08:50:04;0.60;;;0.60;;
64678;SDS011;51094;53.864;27.676;2023-07-28T08:52:32;0.60;;;0.60;;
64678;SDS011;51094;53.864;27.676;2023-07-28T08:54:59;0.47;;;0.47;;
64678;SDS011;51094;53.864;27.676;2023-07-28T08:57:27;0.60;;;0.60;;
64678;SDS011;51094;53.864;27.676;2023-07-28T08:59:54;0.93;;;0.93;;
64678;SDS011;51094;53.864;27.676;2023-07-28T09:02:21;0.50;;;0.50;;
64678;SDS011;51094;53.864;27.676;2023-07-28T09:04:48;0.50;;;0.50;;
64678;SDS011;51094;53.864;27.676;2023-07-28T09:07:16;0.60;;;0.60;;
64678;SDS011;51094;53.864;27.676;2023-07-28T09:09:43;0.32;;;0.32;;
64678;SDS011;51094;53.864;27.676;2023-07-28T09:12:10;0.50;;;0.50;;
64678;SDS011;51094;53.864;27.676;2023-07-28T09:14:37;0.43;;;0.43;;
64678;SDS011;51094;53.864;27.676;2023-07-28T09:17:09;0.38;;;0.38;;
64678;SDS011;51094;53.864;27.676;2023-07-28T09:19:53;0.50;;;0.50;;
64678;SDS011;51094;53.864;27.676;2023-07-28T09:22:21;0.80;;;0.80;;
64678;SDS011;51094;53.864;27.676;2023-07-28T09:24:49;0.85;;;0.85;;
64678;SDS011;51094;53.864;27.676;2023-07-28T09:27:22;0.50;;;0.50;;
64678;SDS011;51094;53.864;27.676;2023-07-28T09:29:51;0.30;;;0.30;;
64678;SDS011;51094;53.864;27.676;2023-07-28T09:32:31;0.50;;;0.50;;
64678;SDS011;51094;53.864;27.676;2023-07-28T09:35:07;0.40;;;0.40;;
64678;SDS011;51094;53.864;27.676;2023-07-28T09:37:43;0.43;;;0.43;;
64678;SDS011;51094;53.864;27.676;2023-07-28T09:40:12;0.30;;;0.30;;
64678;SDS011;51094;53.864;27.676;2023-07-28T09:42:44;0.40;;;0.40;;
64678;SDS011;51094;53.864;27.676;2023-07-28T09:45:20;0.40;;;0.40;;
64678;SDS011;51094;53.864;27.676;2023-07-28T09:48:02;0.30;;;0.30;;
64678;SDS011;51094;53.864;27.676;2023-07-28T09:50:36;0.32;;;0.32;;
64678;SDS011;51094;53.864;27.676;2023-07-28T09:53:05;0.40;;;0.40;;
64678;SDS011;51094;53.864;27.676;2023-07-28T09:55:34;0.52;;;0.52;;
64678;SDS011;51094;53.864;27.676;2023-07-28T09:58:06;0.40;;;0.40;;
64678;SDS011;51094;53.864;27.676;2023-07-28T10:00:36;0.55;;;0.55;;
64678;SDS011;51094;53.864;27.676;2023-07-28T10:03:04;0.60;;;0.60;;
64678;SDS011;51094;53.864;27.676;2023-07-28T10:05:33;0.30;;;0.30;;
64678;SDS011;51094;53.864;27.676;2023-07-28T10:08:00;0.35;;;0.35;;
64678;SDS011;51094;53.864;27.676;2023-07-28T10:10:30;0.43;;;0.43;;
64678;SDS011;51094;53.864;27.676;2023-07-28T10:12:58;0.47;;;0.47;;
64678;SDS011;51094;53.864;27.676;2023-07-28T10:15:30;0.38;;;0.38;;
64678;SDS011;51094;53.864;27.676;2023-07-28T10:17:58;0.35;;;0.35;;
64678;SDS011;51094;53.864;27.676;2023-07-28T10:20:34;0.40;;;0.40;;
64678;SDS011;51094;53.864;27.676;2023-07-28T10:23:12;0.33;;;0.33;;
64678;SDS011;51094;53.864;27.676;2023-07-28T10:25:40;0.30;;;0.30;;
64678;SDS011;51094;53.864;27.676;2023-07-28T10:28:25;0.40;;;0.40;;
64678;SDS011;51094;53.864;27.676;2023-07-28T10:30:54;0.50;;;0.50;;
64678;SDS011;51094;53.864;27.676;2023-07-28T10:35:58;0.50;;;0.50;;
64678;SDS011;51094;53.864;27.676;2023-07-28T10:38:45;0.50;;;0.50;;
64678;SDS011;51094;53.864;27.676;2023-07-28T10:41:13;0.40;;;0.40;;
64678;SDS011;51094;53.864;27.676;2023-07-28T10:43:42;0.30;;;0.30;;
64678;SDS011;51094;53.864;27.676;2023-07-28T10:46:11;0.40;;;0.40;;
64678;SDS011;51094;53.864;27.676;2023-07-28T10:48:42;0.40;;;0.40;;
64678;SDS011;51094;53.864;27.676;2023-07-28T10:51:11;0.40;;;0.40;;
64678;SDS011;51094;53.864;27.676;2023-07-28T10:53:45;0.38;;;0.38;;
64678;SDS011;51094;53.864;27.676;2023-07-28T10:56:13;0.40;;;0.40;;
64678;SDS011;51094;53.864;27.676;2023-07-28T10:58:40;0.47;;;0.47;;
64678;SDS011;51094;53.864;27.676;2023-07-28T11:01:07;0.30;;;0.30;;
64678;SDS011;51094;53.864;27.676;2023-07-28T11:03:35;0.30;;;0.30;;
64678;SDS011;51094;53.864;27.676;2023-07-28T11:06:03;0.40;;;0.40;;
64678;SDS011;51094;53.864;27.676;2023-07-28T11:08:30;0.30;;;0.30;;
64678;SDS011;51094;53.864;27.676;2023-07-28T11:10:59;0.50;;;0.50;;
64678;SDS011;51094;53.864;27.676;2023-07-28T11:13:27;0.40;;;0.40;;
64678;SDS011;51094;53.864;27.676;2023-07-28T11:15:57;1.55;;;1.55;;
64678;SDS011;51094;53.864;27.676;2023-07-28T11:18:25;0.40;;;0.40;;
64678;SDS011;51094;53.864;27.676;2023-07-28T11:20:52;0.40;;;0.40;;
64678;SDS011;51094;53.864;27.676;2023-07-28T11:23:19;0.50;;;0.50;;
64678;SDS011;51094;53.864;27.676;2023-07-28T11:25:46;0.60;;;0.60;;
64678;SDS011;51094;53.864;27.676;2023-07-28T11:28:14;0.60;;;0.60;;
64678;SDS011;51094;53.864;27.676;2023-07-28T11:30:41;0.60;;;0.60;;
64678;SDS011;51094;53.864;27.676;2023-07-28T11:33:10;0.40;;;0.40;;
64678;SDS011;51094;53.864;27.676;2023-07-28T11:35:38;0.40;;;0.40;;
64678;SDS011;51094;53.864;27.676;2023-07-28T11:38:06;0.40;;;0.40;;
64678;SDS011;51094;53.864;27.676;2023-07-28T11:40:35;0.32;;;0.32;;
64678;SDS011;51094;53.864;27.676;2023-07-28T11:43:03;0.35;;;0.35;;
64678;SDS011;51094;53.864;27.676;2023-07-28T11:45:30;0.60;;;0.60;;
64678;SDS011;51094;53.864;27.676;2023-07-28T11:48:01;0.60;;;0.60;;
64678;SDS011;51094;53.864;27.676;2023-07-28T11:50:33;0.40;;;0.40;;
64678;SDS011;51094;53.864;27.676;2023-07-28T11:53:11;0.30;;;0.30;;
64678;SDS011;51094;53.864;27.676;2023-07-28T11:55:38;0.40;;;0.40;;
64678;SDS011;51094;53.864;27.676;2023-07-28T11:58:05;0.40;;;0.40;;
64678;SDS011;51094;53.864;27.676;2023-07-28T12:00:34;0.40;;;0.40;;
64678;SDS011;51094;53.864;27.676;2023-07-28T12:03:03;0.50;;;0.50;;
64678;SDS011;51094;53.864;27.676;2023-07-28T12:05:40;0.60;;;0.60;;
64678;SDS011;51094;53.864;27.676;2023-07-28T12:08:11;0.70;;;0.70;;
64678;SDS011;51094;53.864;27.676;2023-07-28T12:10:48;0.60;;;0.60;;
64678;SDS011;51094;53.864;27.676;2023-07-28T12:13:24;0.50;;;0.50;;
64678;SDS011;51094;53.864;27.676;2023-07-28T12:15:56;0.50;;;0.50;;
64678;SDS011;51094;53.864;27.676;2023-07-28T12:18:29;0.50;;;0.50;;
64678;SDS011;51094;53.864;27.676;2023-07-28T12:21:00;0.40;;;0.40;;
64678;SDS011;51094;53.864;27.676;2023-07-28T12:23:27;0.43;;;0.43;;
64678;SDS011;51094;53.864;27.676;2023-07-28T12:25:57;0.43;;;0.43;;
64678;SDS011;51094;53.864;27.676;2023-07-28T12:28:25;0.40;;;0.40;;
64678;SDS011;51094;53.864;27.676;2023-07-28T12:30:52;0.50;;;0.50;;
64678;SDS011;51094;53.864;27.676;2023-07-28T12:33:23;0.40;;;0.40;;
64678;SDS011;51094;53.864;27.676;2023-07-28T12:36:03;0.60;;;0.60;;
64678;SDS011;51094;53.864;27.676;2023-07-28T12:38:35;0.50;;;0.50;;
64678;SDS011;51094;53.864;27.676;2023-07-28T12:41:04;0.50;;;0.50;;
64678;SDS011;51094;53.864;27.676;2023-07-28T12:43:35;0.40;;;0.40;;
64678;SDS011;51094;53.864;27.676;2023-07-28T12:46:05;0.40;;;0.40;;
64678;SDS011;51094;53.864;27.676;2023-07-28T12:48:34;0.50;;;0.50;;
64678;SDS011;51094;53.864;27.676;2023-07-28T12:51:14;0.60;;;0.60;;
64678;SDS011;51094;53.864;27.676;2023-07-28T12:53:56;0.47;;;0.47;;
64678;SDS011;51094;53.864;27.676;2023-07-28T12:56:23;0.50;;;0.50;;
64678;SDS011;51094;53.864;27.676;2023-07-28T12:58:53;0.45;;;0.45;;
64678;SDS011;51094;53.864;27.676;2023-07-28T13:01:22;0.40;;;0.40;;
64678;SDS011;51094;53.864;27.676;2023-07-28T13:03:49;0.30;;;0.30;;
64678;SDS011;51094;53.864;27.676;2023-07-28T13:06:16;0.40;;;0.40;;
64678;SDS011;51094;53.864;27.676;2023-07-28T13:08:43;0.30;;;0.30;;
64678;SDS011;51094;53.864;27.676;2023-07-28T13:11:13;0.30;;;0.30;;
64678;SDS011;51094;53.864;27.676;2023-07-28T13:13:43;0.43;;;0.43;;
64678;SDS011;51094;53.864;27.676;2023-07-28T13:16:10;0.30;;;0.30;;
64678;SDS011;51094;53.864;27.676;2023-07-28T13:18:39;0.40;;;0.40;;
64678;SDS011;51094;53.864;27.676;2023-07-28T13:21:06;0.40;;;0.40;;
64678;SDS011;51094;53.864;27.676;2023-07-28T13:23:33;0.40;;;0.40;;
64678;SDS011;51094;53.864;27.676;2023-07-28T13:26:00;0.50;;;0.50;;
64678;SDS011;51094;53.864;27.676;2023-07-28T13:28:27;0.40;;;0.40;;
64678;SDS011;51094;53.864;27.676;2023-07-28T13:30:53;0.40;;;0.40;;
64678;SDS011;51094;53.864;27.676;2023-07-28T13:33:20;0.43;;;0.43;;
64678;SDS011;51094;53.864;27.676;2023-07-28T13:35:48;0.50;;;0.50;;
64678;SDS011;51094;53.864;27.676;2023-07-28T13:38:15;0.60;;;0.60;;
64678;SDS011;51094;53.864;27.676;2023-07-28T13:40:42;0.60;;;0.60;;
64678;SDS011;51094;53.864;27.676;2023-07-28T13:43:08;0.60;;;0.60;;
64678;SDS011;51094;53.864;27.676;2023-07-28T13:45:42;0.50;;;0.50;;
64678;SDS011;51094;53.864;27.676;2023-07-28T13:48:09;0.50;;;0.50;;
64678;SDS011;51094;53.864;27.676;2023-07-28T13:50:51;0.40;;;0.40;;
64678;SDS011;51094;53.864;27.676;2023-07-28T13:53:22;0.60;;;0.60;;
64678;SDS011;51094;53.864;27.676;2023-07-28T13:55:53;0.40;;;0.40;;
64678;SDS011;51094;53.864;27.676;2023-07-28T13:58:23;0.50;;;0.50;;
64678;SDS011;51094;53.864;27.676;2023-07-28T14:00:51;0.40;;;0.40;;
64678;SDS011;51094;53.864;27.676;2023-07-28T14:03:18;0.40;;;0.40;;
64678;SDS011;51094;53.864;27.676;2023-07-28T14:05:45;1.10;;;1.10;;
64678;SDS011;51094;53.864;27.676;2023-07-28T14:08:13;0.50;;;0.50;;
64678;SDS011;51094;53.864;27.676;2023-07-28T14:10:44;0.40;;;0.40;;
64678;SDS011;51094;53.864;27.676;2023-07-28T14:13:12;0.40;;;0.40;;
64678;SDS011;51094;53.864;27.676;2023-07-28T14:15:39;0.40;;;0.40;;
64678;SDS011;51094;53.864;27.676;2023-07-28T14:18:07;0.60;;;0.60;;
64678;SDS011;51094;53.864;27.676;2023-07-28T14:20:34;0.50;;;0.50;;
64678;SDS011;51094;53.864;27.676;2023-07-28T14:23:01;0.60;;;0.60;;
64678;SDS011;51094;53.864;27.676;2023-07-28T14:25:28;0.60;;;0.60;;
64678;SDS011;51094;53.864;27.676;2023-07-28T14:27:55;0.57;;;0.57;;
64678;SDS011;51094;53.864;27.676;2023-07-28T14:30:22;0.50;;;0.50;;
64678;SDS011;51094;53.864;27.676;2023-07-28T14:32:49;0.40;;;0.40;;
64678;SDS011;51094;53.864;27.676;2023-07-28T14:35:15;0.50;;;0.50;;
64678;SDS011;51094;53.864;27.676;2023-07-28T14:37:42;0.40;;;0.40;;
64678;SDS011;51094;53.864;27.676;2023-07-28T14:40:09;0.50;;;0.50;;
64678;SDS011;51094;53.864;27.676;2023-07-28T14:42:36;0.30;;;0.30;;
64678;SDS011;51094;53.864;27.676;2023-07-28T14:45:03;0.40;;;0.40;;
64678;SDS011;51094;53.864;27.676;2023-07-28T14:47:30;0.40;;;0.40;;
64678;SDS011;51094;53.864;27.676;2023-07-28T14:49:57;0.40;;;0.40;;
64678;SDS011;51094;53.864;27.676;2023-07-28T14:52:25;0.40;;;0.40;;